createdAt,value
2024-05-09T00:04:14.281Z,101836.60
2024-05-09T00:09:20.548Z,101834.80
2024-05-09T00:14:23.657Z,101843.80
2024-05-09T00:19:28.613Z,101843.00
2024-05-09T00:24:32.960Z,101826.80
2024-05-09T00:29:35.770Z,101827.20
2024-05-09T00:34:39.653Z,101830.00
2024-05-09T00:39:48.631Z,101826.60
2024-05-09T00:44:55.102Z,101827.60
2024-05-09T00:49:57.808Z,101835.20
2024-05-09T00:55:08.694Z,101833.00
2024-05-09T01:00:22.456Z,101834.60
2024-05-09T01:05:41.244Z,101834.40
2024-05-09T01:10:48.441Z,101831.80
2024-05-09T01:15:53.946Z,101828.20
2024-05-09T01:20:58.898Z,101832.80
2024-05-09T01:26:01.724Z,101831.00
2024-05-09T01:31:05.120Z,101834.80
2024-05-09T01:36:09.628Z,101844.20
2024-05-09T01:41:14.106Z,101843.00
2024-05-09T01:46:21.873Z,101840.00
2024-05-09T01:51:24.905Z,101834.80
2024-05-09T01:56:27.745Z,101836.40
2024-05-09T02:01:55.349Z,101840.40
2024-05-09T02:06:57.476Z,101827.60
2024-05-09T02:12:01.378Z,101830.40
2024-05-09T02:17:04.719Z,101850.20
2024-05-09T02:22:08.783Z,101853.00
2024-05-09T02:27:11.435Z,101845.20
2024-05-09T02:32:14.639Z,101837.00
2024-05-09T02:37:17.351Z,101844.00
2024-05-09T02:42:20.083Z,101840.40
2024-05-09T02:47:25.654Z,101843.60
2024-05-09T02:52:30.824Z,101849.20
2024-05-09T02:57:40.254Z,101847.00
2024-05-09T03:02:46.786Z,101848.20
2024-05-09T03:07:49.655Z,101846.40
2024-05-09T03:12:52.546Z,101839.00
2024-05-09T03:17:56.745Z,101830.40
2024-05-09T03:23:04.870Z,101827.80
2024-05-09T03:28:09.652Z,101834.80
2024-05-09T03:33:24.896Z,101832.80
2024-05-09T03:38:32.597Z,101822.60
2024-05-09T03:43:46.110Z,101812.80
2024-05-09T03:49:05.421Z,101798.00
2024-05-09T03:54:22.708Z,101787.60
2024-05-09T03:59:55.411Z,101781.00
2024-05-09T04:05:17.571Z,101776.60
2024-05-09T04:11:11.673Z,101768.00
2024-05-09T04:16:14.648Z,101774.00
2024-05-09T04:21:17.454Z,101772.40
2024-05-09T04:26:20.462Z,101767.60
2024-05-09T04:31:23.479Z,101764.20
2024-05-09T04:36:26.166Z,101757.00
2024-05-09T04:41:36.351Z,101755.00
2024-05-09T04:46:40.399Z,101755.60
2024-05-09T04:51:48.004Z,101751.00
2024-05-09T04:56:50.836Z,101751.80
2024-05-09T05:01:53.780Z,101745.80
2024-05-09T05:06:58.375Z,101746.60
2024-05-09T05:12:23.576Z,101749.40
2024-05-09T05:17:26.650Z,101743.00
2024-05-09T05:22:32.494Z,101736.60
2024-05-09T05:27:41.033Z,101731.60
2024-05-09T05:32:43.983Z,101732.80
2024-05-09T05:37:46.793Z,101714.80
2024-05-09T05:42:50.576Z,101722.80
2024-05-09T05:47:55.543Z,101712.40
2024-05-09T05:53:00.678Z,101705.60
2024-05-09T05:58:03.923Z,101713.00
2024-05-09T06:03:11.695Z,101721.00
2024-05-09T06:08:17.573Z,101725.80
2024-05-09T06:13:21.869Z,101728.80
2024-05-09T06:19:15.366Z,101726.60
2024-05-09T06:24:32.132Z,101723.20
2024-05-09T06:29:41.306Z,101729.20
2024-05-09T06:34:45.463Z,101722.00
2024-05-09T06:39:48.508Z,101715.60
2024-05-09T06:44:53.360Z,101704.80
2024-05-09T06:49:58.951Z,101704.60
2024-05-09T06:55:01.630Z,101699.80
2024-05-09T07:00:10.271Z,101698.80
2024-05-09T07:05:20.249Z,101692.20
2024-05-09T07:10:28.933Z,101695.40
2024-05-09T07:15:36.945Z,101695.20
2024-05-09T07:20:42.224Z,101698.80
2024-05-09T07:25:47.787Z,101691.40
2024-05-09T07:31:06.285Z,101689.40
2024-05-09T07:36:09.017Z,101684.60
2024-05-09T07:41:12.266Z,101685.20
2024-05-09T07:53:14.076Z,101691.40
2024-05-09T07:56:58.194Z,101688.40
2024-05-09T08:02:01.298Z,101686.20
2024-05-09T08:07:04.851Z,101686.80
2024-05-09T08:12:09.238Z,101691.00
2024-05-09T08:17:14.766Z,101686.60
2024-05-09T08:22:17.574Z,101685.80
2024-05-09T08:27:20.474Z,101687.00
2024-05-09T08:32:24.919Z,101699.60
2024-05-09T08:37:31.109Z,101697.00
2024-05-09T08:42:51.942Z,101689.00
2024-05-09T08:47:57.705Z,101685.20
2024-05-09T08:53:00.582Z,101682.60
2024-05-09T08:58:04.903Z,101685.00
2024-05-09T09:03:12.130Z,101677.20
2024-05-09T09:08:19.017Z,101679.60
2024-05-09T09:13:31.051Z,101680.80
2024-05-09T09:18:34.346Z,101678.20
2024-05-09T09:23:39.422Z,101677.80
2024-05-09T09:28:44.882Z,101677.20
2024-05-09T09:33:47.819Z,101676.20
2024-05-09T09:38:51.973Z,101677.80
2024-05-09T09:43:58.977Z,101674.60
2024-05-09T09:49:02.758Z,101677.20
2024-05-09T09:54:07.349Z,101675.20
2024-05-09T09:59:13.936Z,101672.20
2024-05-09T10:04:19.728Z,101671.20
2024-05-09T10:09:24.398Z,101670.20
2024-05-09T10:14:33.395Z,101663.80
2024-05-09T10:19:36.229Z,101656.00
2024-05-09T10:24:48.681Z,101665.00
2024-05-09T10:29:57.087Z,101676.20
2024-05-09T10:35:11.725Z,101666.20
2024-05-09T10:40:26.282Z,101666.00
2024-05-09T10:45:36.681Z,101662.20
2024-05-09T10:50:43.786Z,101665.20
2024-05-09T10:56:04.087Z,101665.60
2024-05-09T11:01:08.711Z,101658.60
2024-05-09T11:06:14.311Z,101651.60
2024-05-09T11:11:17.579Z,101660.00
2024-05-09T11:16:21.465Z,101645.80
2024-05-09T11:21:25.082Z,101637.40
2024-05-09T11:26:34.248Z,101625.20
2024-05-09T11:31:49.389Z,101630.80
2024-05-09T11:36:52.243Z,101626.60
2024-05-09T11:41:54.916Z,101624.40
2024-05-09T11:46:57.638Z,101617.00
2024-05-09T11:52:00.442Z,101609.40
2024-05-09T11:57:06.895Z,101601.20
2024-05-09T12:02:09.941Z,101598.40
2024-05-09T12:07:17.261Z,101593.80
2024-05-09T12:12:20.044Z,101582.40
2024-05-09T12:17:22.915Z,101582.40
2024-05-09T12:22:25.816Z,101573.80
2024-05-09T12:27:28.684Z,101569.40
2024-05-09T12:32:31.579Z,101568.40
2024-05-09T12:37:34.599Z,101561.00
2024-05-09T12:42:37.839Z,101560.80
2024-05-09T12:47:40.885Z,101559.80
2024-05-09T12:52:43.572Z,101553.00
2024-05-09T12:57:46.506Z,101547.40
2024-05-09T13:02:49.385Z,101547.60
2024-05-09T13:08:01.248Z,101542.00
2024-05-09T13:13:04.257Z,101539.00
2024-05-09T13:18:09.028Z,101529.80
2024-05-09T13:23:11.896Z,101529.40
2024-05-09T13:28:14.704Z,101521.60
2024-05-09T13:33:17.555Z,101520.80
2024-05-09T13:38:21.220Z,101509.40
2024-05-09T13:43:25.310Z,101507.00
2024-05-09T13:48:28.289Z,101504.40
2024-05-09T13:53:31.131Z,101498.20
2024-05-09T13:58:34.078Z,101497.20
2024-05-09T14:03:38.865Z,101495.00
2024-05-09T14:08:42.184Z,101488.60
2024-05-09T14:13:47.301Z,101489.20
2024-05-09T14:18:50.163Z,101480.40
2024-05-09T14:23:55.701Z,101469.80
2024-05-09T14:28:58.398Z,101465.20
2024-05-09T14:34:04.220Z,101457.40
2024-05-09T14:39:07.055Z,101455.60
2024-05-09T14:44:11.686Z,101445.20
2024-05-09T14:49:18.732Z,101438.20
2024-05-09T14:54:21.571Z,101432.00
2024-05-09T14:59:24.233Z,101426.60
2024-05-09T15:04:36.165Z,101425.20
2024-05-09T15:09:39.018Z,101420.60
2024-05-09T15:14:41.720Z,101410.40
2024-05-09T15:19:45.389Z,101404.40
2024-05-09T15:24:48.406Z,101397.60
2024-05-09T15:29:51.044Z,101397.80
2024-05-09T15:34:53.681Z,101391.20
2024-05-09T15:39:58.821Z,101392.20
2024-05-09T15:45:01.599Z,101389.40
2024-05-09T15:50:11.876Z,101391.20
2024-05-09T15:55:19.867Z,101381.60
2024-05-09T16:00:36.081Z,101375.20
2024-05-09T16:05:45.291Z,101379.40
2024-05-09T16:10:48.598Z,101370.20
2024-05-09T16:15:51.763Z,101375.40
2024-05-09T16:20:59.653Z,101365.80
2024-05-09T16:26:05.512Z,101365.60
2024-05-09T16:31:08.258Z,101357.20
2024-05-09T16:36:13.367Z,101352.60
2024-05-09T16:41:16.352Z,101346.20
2024-05-09T16:46:19.445Z,101340.80
2024-05-09T16:51:22.374Z,101347.80
2024-05-09T16:56:30.254Z,101342.20
2024-05-09T17:01:33.472Z,101345.60
2024-05-09T17:06:38.992Z,101338.60
2024-05-09T17:11:41.629Z,101339.60
2024-05-09T17:16:44.375Z,101331.00
2024-05-09T17:21:47.063Z,101328.00
2024-05-09T17:26:52.917Z,101336.40
2024-05-09T17:31:55.696Z,101333.00
2024-05-09T17:37:00.458Z,101321.00
2024-05-09T17:42:03.603Z,101320.00
2024-05-09T17:47:06.567Z,101315.20
2024-05-09T17:52:09.570Z,101314.40
2024-05-09T17:57:14.107Z,101314.00
2024-05-09T18:02:21.304Z,101308.20
2024-05-09T18:07:24.153Z,101310.60
2024-05-09T18:12:26.969Z,101316.80
2024-05-09T18:17:30.999Z,101315.80
2024-05-09T18:22:33.883Z,101319.80
2024-05-09T18:27:36.728Z,101314.40
2024-05-09T18:32:39.515Z,101319.60
2024-05-09T18:37:43.580Z,101318.80
2024-05-09T18:42:46.290Z,101318.20
2024-05-09T18:47:49.530Z,101317.00
2024-05-09T18:52:52.277Z,101326.40
2024-05-09T18:57:55.015Z,101322.60
2024-05-09T19:02:57.914Z,101327.40
2024-05-09T19:08:01.434Z,101327.00
2024-05-09T19:13:09.212Z,101326.60
2024-05-09T19:18:18.680Z,101327.40
2024-05-09T19:23:21.625Z,101329.20
2024-05-09T19:28:24.551Z,101333.00
2024-05-09T19:33:27.626Z,101333.60
2024-05-09T19:38:30.628Z,101331.80
2024-05-09T19:43:36.038Z,101329.80
2024-05-09T19:48:41.752Z,101331.80
2024-05-09T19:53:46.678Z,101333.40
2024-05-09T19:58:55.042Z,101330.60
2024-05-09T20:03:59.079Z,101324.00
2024-05-09T20:09:04.376Z,101325.60
2024-05-09T20:14:11.684Z,101323.00
2024-05-09T20:19:14.674Z,101323.60
2024-05-09T20:24:19.264Z,101322.40
2024-05-09T20:29:22.440Z,101322.60
2024-05-09T20:34:25.325Z,101325.60
2024-05-09T20:39:28.129Z,101322.80
2024-05-09T20:44:34.065Z,101320.80
2024-05-09T20:49:36.854Z,101322.20
2024-05-09T20:54:39.751Z,101321.00
2024-05-09T20:59:46.011Z,101327.00
2024-05-09T21:04:51.970Z,101322.80
2024-05-09T21:10:00.596Z,101330.20
2024-05-09T21:15:03.587Z,101327.60
2024-05-09T21:20:11.672Z,101322.80
2024-05-09T21:25:21.090Z,101328.20
2024-05-09T21:30:38.500Z,101328.00
2024-05-09T21:35:45.325Z,101327.20
2024-05-09T21:40:48.322Z,101323.80
2024-05-09T21:45:51.073Z,101324.60
2024-05-09T21:50:53.851Z,101327.20
2024-05-09T21:55:59.216Z,101324.20
2024-05-09T22:01:05.345Z,101334.20
2024-05-09T22:06:11.452Z,101328.60
2024-05-09T22:11:14.255Z,101321.80
2024-05-09T22:16:17.105Z,101323.00
2024-05-09T22:21:19.826Z,101315.20
2024-05-09T22:26:26.527Z,101320.80
2024-05-09T22:31:30.084Z,101310.40
2024-05-09T22:36:32.990Z,101314.00
2024-05-09T22:41:40.597Z,101306.00
2024-05-09T22:46:45.883Z,101301.60
2024-05-09T22:51:48.947Z,101301.00
2024-05-09T22:56:53.779Z,101296.60
2024-05-09T23:01:56.869Z,101300.60
2024-05-09T23:06:59.750Z,101289.60
2024-05-09T23:12:02.728Z,101292.00
2024-05-09T23:17:08.119Z,101295.20
2024-05-09T23:22:11.177Z,101289.60
2024-05-09T23:27:14.759Z,101288.00
2024-05-09T23:32:17.492Z,101284.80
2024-05-09T23:37:20.256Z,101272.60
2024-05-09T23:42:22.867Z,101277.00
2024-05-09T23:47:25.595Z,101270.80
2024-05-09T23:52:29.584Z,101265.40
2024-05-09T23:57:37.223Z,101263.60
